createdAt,value
2017-09-27T00:01:11.858Z,22.42
2017-09-27T00:04:14.142Z,21.50
2017-09-27T00:07:16.166Z,24.83
2017-09-27T00:10:18.490Z,21.30
2017-09-27T00:13:20.447Z,27.48
2017-09-27T00:16:22.820Z,23.02
2017-09-27T00:19:24.855Z,23.15
2017-09-27T00:22:27.201Z,21.90
2017-09-27T00:25:29.137Z,25.67
2017-09-27T00:28:32.247Z,22.05
2017-09-27T00:31:34.192Z,27.15
2017-09-27T00:34:36.616Z,23.17
2017-09-27T00:37:39.328Z,26.05
2017-09-27T00:40:41.669Z,28.80
2017-09-27T00:43:43.607Z,28.15
2017-09-27T00:46:45.984Z,35.50
2017-09-27T00:49:47.920Z,32.53
2017-09-27T00:52:50.270Z,39.25
2017-09-27T00:55:52.212Z,45.92
2017-09-27T00:58:54.535Z,46.00
2017-09-27T01:01:56.535Z,49.55
2017-09-27T01:04:58.896Z,61.13
2017-09-27T01:08:00.912Z,70.85
2017-09-27T01:11:05.608Z,78.93
2017-09-27T01:14:07.595Z,86.20
2017-09-27T01:17:09.963Z,75.28
2017-09-27T01:20:11.912Z,80.55
2017-09-27T01:23:14.271Z,88.22
2017-09-27T01:26:16.207Z,88.93
2017-09-27T01:29:18.573Z,91.00
2017-09-27T01:32:20.516Z,93.25
2017-09-27T01:35:22.870Z,97.78
2017-09-27T01:38:24.801Z,102.80
2017-09-27T01:41:27.902Z,107.15
2017-09-27T01:44:29.830Z,106.55
2017-09-27T01:47:32.308Z,116.60
2017-09-27T01:50:34.245Z,116.72
2017-09-27T01:53:36.607Z,112.93
2017-09-27T01:56:38.543Z,118.40
2017-09-27T01:59:40.908Z,122.70
2017-09-27T02:02:42.837Z,128.18
2017-09-27T02:05:45.948Z,129.80
2017-09-27T02:08:47.892Z,126.22
2017-09-27T02:11:50.244Z,131.25
2017-09-27T02:14:52.213Z,112.97
2017-09-27T02:17:54.654Z,115.62
2017-09-27T02:20:56.606Z,127.15
2017-09-27T02:23:58.999Z,135.00
2017-09-27T02:27:00.935Z,132.37
2017-09-27T02:30:03.218Z,128.90
2017-09-27T02:33:05.935Z,139.80
2017-09-27T02:36:09.106Z,115.80
2017-09-27T02:39:11.068Z,124.82
2017-09-27T02:42:13.352Z,116.97
2017-09-27T02:45:15.359Z,122.82
2017-09-27T02:48:17.711Z,127.75
2017-09-27T02:51:19.665Z,131.68
2017-09-27T02:54:22.031Z,138.52
2017-09-27T02:57:24.079Z,135.10
2017-09-27T03:00:26.423Z,120.43
2017-09-27T03:03:28.363Z,137.40
2017-09-27T03:06:31.265Z,136.07
2017-09-27T03:09:33.219Z,145.52
2017-09-27T03:12:35.554Z,124.25
2017-09-27T03:15:37.498Z,127.18
2017-09-27T03:18:40.889Z,129.05
2017-09-27T03:21:42.824Z,134.90
2017-09-27T03:24:45.187Z,123.72
2017-09-27T03:27:47.117Z,135.60
2017-09-27T03:30:49.496Z,133.98
2017-09-27T03:33:51.447Z,109.53
2017-09-27T03:36:53.804Z,138.40
2017-09-27T03:39:55.850Z,128.07
2017-09-27T03:42:58.218Z,123.43
2017-09-27T03:46:00.165Z,140.07
2017-09-27T03:49:02.533Z,136.25
2017-09-27T03:52:04.574Z,136.27
2017-09-27T03:55:06.935Z,135.10
2017-09-27T03:58:08.883Z,133.30
2017-09-27T04:01:11.240Z,140.07
2017-09-27T04:04:13.172Z,144.60
2017-09-27T04:07:15.539Z,132.50
2017-09-27T04:10:17.495Z,145.60
2017-09-27T04:13:19.834Z,133.37
2017-09-27T04:16:21.889Z,128.18
2017-09-27T04:19:24.244Z,133.52
2017-09-27T04:22:26.397Z,122.45
2017-09-27T04:25:28.754Z,147.60
2017-09-27T04:28:30.690Z,134.63
2017-09-27T04:31:33.073Z,132.40
2017-09-27T04:34:35.108Z,139.50
2017-09-27T04:37:37.459Z,136.30
2017-09-27T04:40:39.395Z,132.00
2017-09-27T04:43:42.597Z,130.65
2017-09-27T04:46:44.556Z,129.77
2017-09-27T04:49:46.914Z,122.87
2017-09-27T04:52:48.841Z,128.40
2017-09-27T04:55:51.248Z,136.98
2017-09-27T04:58:53.174Z,124.63
2017-09-27T05:01:55.520Z,125.00
2017-09-27T05:04:57.461Z,136.27
2017-09-27T05:07:59.826Z,128.87
2017-09-27T05:11:01.877Z,119.95
2017-09-27T05:14:04.234Z,128.95
2017-09-27T05:17:06.180Z,123.62
2017-09-27T05:20:08.531Z,117.22
2017-09-27T05:23:10.470Z,128.45
2017-09-27T05:26:12.831Z,124.22
2017-09-27T05:29:14.771Z,123.00
2017-09-27T05:32:17.088Z,112.22
2017-09-27T05:35:19.088Z,114.80
2017-09-27T05:38:21.447Z,122.87
2017-09-27T05:41:23.391Z,114.28
2017-09-27T05:44:25.740Z,121.00
2017-09-27T05:47:27.700Z,111.78
2017-09-27T05:50:30.005Z,111.72
2017-09-27T05:53:32.008Z,118.10
2017-09-27T05:56:34.349Z,110.25
2017-09-27T05:59:37.058Z,117.05
2017-09-27T06:02:39.389Z,125.45
2017-09-27T06:05:41.314Z,115.80
2017-09-27T06:08:44.411Z,115.20
2017-09-27T06:11:46.447Z,94.32
2017-09-27T06:14:48.814Z,110.55
2017-09-27T06:17:50.747Z,103.38
2017-09-27T06:20:53.227Z,107.12
2017-09-27T06:23:55.214Z,98.45
2017-09-27T06:26:57.541Z,91.90
2017-09-27T06:29:59.470Z,75.93
2017-09-27T06:33:01.829Z,93.57
2017-09-27T06:36:04.718Z,88.78
2017-09-27T06:39:07.077Z,101.90
2017-09-27T06:42:09.135Z,92.75
2017-09-27T06:45:11.485Z,100.90
2017-09-27T06:48:13.518Z,104.78
2017-09-27T06:51:15.878Z,110.82
2017-09-27T06:54:17.823Z,103.28
2017-09-27T06:57:20.176Z,101.40
2017-09-27T07:00:22.125Z,100.70
2017-09-27T07:03:24.491Z,98.53
2017-09-27T07:06:26.588Z,83.22
2017-09-27T07:09:28.945Z,84.75
2017-09-27T07:12:30.885Z,84.37
2017-09-27T07:15:34.017Z,90.35
2017-09-27T07:18:35.976Z,83.72
2017-09-27T07:21:38.337Z,82.68
2017-09-27T07:24:40.378Z,82.32
2017-09-27T07:27:42.732Z,87.72
2017-09-27T07:30:44.666Z,80.62
2017-09-27T07:33:47.756Z,71.18
2017-09-27T07:36:49.708Z,69.25
2017-09-27T07:39:52.080Z,68.35
2017-09-27T07:42:54.024Z,64.37
2017-09-27T07:45:56.373Z,64.15
2017-09-27T07:48:58.309Z,69.95
2017-09-27T07:52:00.654Z,72.50
2017-09-27T07:55:03.467Z,69.00
2017-09-27T07:58:05.905Z,71.35
2017-09-27T08:01:07.831Z,69.35
2017-09-27T08:04:10.937Z,70.10
2017-09-27T08:07:12.876Z,70.62
2017-09-27T08:10:15.184Z,66.70
2017-09-27T08:13:17.276Z,71.32
2017-09-27T08:16:19.638Z,76.80
2017-09-27T08:19:21.814Z,74.12
2017-09-27T08:22:24.845Z,69.85
2017-09-27T08:25:26.826Z,75.53
2017-09-27T08:28:29.181Z,66.82
2017-09-27T08:31:31.230Z,68.60
2017-09-27T08:34:33.575Z,68.15
2017-09-27T08:37:35.518Z,64.05
2017-09-27T08:40:37.892Z,70.93
2017-09-27T08:43:39.820Z,64.18
2017-09-27T08:46:42.294Z,62.85
2017-09-27T08:49:44.338Z,53.40
2017-09-27T08:52:46.707Z,61.33
2017-09-27T08:55:48.750Z,60.55
2017-09-27T08:58:51.106Z,64.55
2017-09-27T09:01:53.058Z,55.10
2017-09-27T09:04:55.413Z,63.22
2017-09-27T09:07:57.363Z,62.83
2017-09-27T09:10:59.711Z,58.53
2017-09-27T09:14:01.672Z,52.62
2017-09-27T09:17:04.023Z,60.00
2017-09-27T09:20:05.967Z,60.15
2017-09-27T09:23:08.332Z,54.28
2017-09-27T09:26:10.275Z,55.33
2017-09-27T09:29:12.632Z,55.88
2017-09-27T09:32:14.569Z,55.30
2017-09-27T09:35:16.631Z,55.58
2017-09-27T09:38:18.592Z,58.60
2017-09-27T09:41:20.740Z,59.92
2017-09-27T09:44:22.717Z,64.50
2017-09-27T09:47:24.853Z,66.82
2017-09-27T09:50:26.797Z,62.72
2017-09-27T09:53:28.844Z,58.20
2017-09-27T09:56:30.792Z,65.68
2017-09-27T09:59:32.944Z,65.57
2017-09-27T10:02:34.985Z,63.80
2017-09-27T10:05:37.349Z,62.38
2017-09-27T10:08:39.287Z,65.18
2017-09-27T10:11:41.347Z,58.03
2017-09-27T10:14:43.291Z,62.38
2017-09-27T10:17:45.653Z,59.78
2017-09-27T10:20:47.687Z,62.40
2017-09-27T10:23:50.057Z,61.03
2017-09-27T10:26:51.991Z,74.97
2017-09-27T10:29:54.350Z,65.82
2017-09-27T10:32:56.293Z,62.80
2017-09-27T10:35:58.350Z,62.88
2017-09-27T10:39:00.291Z,82.10
2017-09-27T10:42:02.457Z,62.65
2017-09-27T10:45:04.398Z,61.37
2017-09-27T10:48:06.568Z,54.83
2017-09-27T10:51:08.554Z,59.90
2017-09-27T10:54:10.654Z,56.28
2017-09-27T10:57:12.610Z,59.67
2017-09-27T11:00:14.766Z,62.05
2017-09-27T11:03:16.716Z,69.30
2017-09-27T11:06:18.870Z,70.80
2017-09-27T11:09:20.820Z,68.15
2017-09-27T11:12:22.833Z,74.75
2017-09-27T11:15:25.536Z,69.10
2017-09-27T11:18:27.794Z,82.90
2017-09-27T11:21:29.856Z,78.05
2017-09-27T11:24:32.194Z,80.12
2017-09-27T11:27:34.138Z,87.45
2017-09-27T11:30:36.091Z,85.85
2017-09-27T11:33:38.022Z,80.10
2017-09-27T11:36:40.404Z,76.65
2017-09-27T11:39:42.435Z,78.05
2017-09-27T11:42:44.813Z,71.37
2017-09-27T11:45:46.811Z,74.30
2017-09-27T11:48:50.664Z,77.20
2017-09-27T11:51:52.608Z,71.90
2017-09-27T11:54:55.052Z,63.65
2017-09-27T11:57:56.996Z,59.85
2017-09-27T12:00:59.893Z,58.87
2017-09-27T12:04:02.638Z,59.33
2017-09-27T12:07:04.982Z,61.25
2017-09-27T12:10:06.939Z,61.70
2017-09-27T12:13:09.007Z,63.85
2017-09-27T12:16:11.144Z,66.07
2017-09-27T12:19:13.576Z,63.80
2017-09-27T12:22:16.281Z,67.50
2017-09-27T12:25:18.648Z,65.62
2017-09-27T12:28:20.877Z,64.32
2017-09-27T12:31:23.266Z,62.92
2017-09-27T12:34:25.303Z,58.65
2017-09-27T12:37:27.663Z,65.15
2017-09-27T12:40:29.704Z,56.30
2017-09-27T12:43:31.965Z,63.80
2017-09-27T12:46:33.898Z,62.78
2017-09-27T12:49:36.256Z,65.15
2017-09-27T12:52:38.210Z,59.80
2017-09-27T12:55:41.320Z,61.55
2017-09-27T12:58:43.358Z,66.43
2017-09-27T13:01:45.731Z,59.97
2017-09-27T13:04:47.680Z,58.85
2017-09-27T13:07:50.046Z,53.97
2017-09-27T13:10:51.987Z,62.78
2017-09-27T13:13:54.336Z,62.55
2017-09-27T13:16:56.282Z,56.80
2017-09-27T13:19:58.646Z,51.45
2017-09-27T13:23:00.692Z,54.70
2017-09-27T13:26:02.962Z,64.47
2017-09-27T13:29:04.999Z,54.60
2017-09-27T13:32:07.387Z,58.92
2017-09-27T13:35:09.429Z,52.88
2017-09-27T13:38:11.775Z,51.92
2017-09-27T13:41:13.738Z,48.58
2017-09-27T13:44:16.107Z,50.75
2017-09-27T13:47:18.055Z,46.72
2017-09-27T13:50:20.418Z,45.33
2017-09-27T13:53:22.361Z,50.33
2017-09-27T13:56:25.466Z,56.30
2017-09-27T13:59:27.438Z,47.92
2017-09-27T14:02:29.976Z,45.97
2017-09-27T14:05:31.906Z,47.35
2017-09-27T14:08:34.191Z,45.85
2017-09-27T14:11:36.231Z,47.70
2017-09-27T14:14:38.600Z,51.05
2017-09-27T14:17:40.639Z,49.88
2017-09-27T14:20:43.013Z,48.78
2017-09-27T14:23:45.086Z,49.08
2017-09-27T14:26:47.405Z,45.30
2017-09-27T14:29:49.338Z,55.97
2017-09-27T14:32:51.860Z,56.83
2017-09-27T14:35:53.807Z,48.17
2017-09-27T14:38:56.168Z,48.63
2017-09-27T14:41:58.234Z,50.65
2017-09-27T14:45:00.592Z,53.92
2017-09-27T14:48:02.657Z,52.25
2017-09-27T14:51:04.990Z,53.63
2017-09-27T14:54:07.044Z,58.78
2017-09-27T14:57:09.468Z,55.20
2017-09-27T15:00:12.172Z,52.30
2017-09-27T15:03:14.520Z,59.92
2017-09-27T15:06:16.464Z,60.25
2017-09-27T15:09:18.810Z,59.20
2017-09-27T15:12:20.750Z,57.35
2017-09-27T15:15:23.119Z,54.90
2017-09-27T15:18:25.228Z,51.85
2017-09-27T15:21:27.584Z,58.00
2017-09-27T15:24:29.778Z,59.47
2017-09-27T15:27:32.036Z,55.17
2017-09-27T15:30:34.945Z,56.08
2017-09-27T15:33:37.993Z,51.63
2017-09-27T15:36:39.926Z,54.20
2017-09-27T15:39:42.266Z,51.92
2017-09-27T15:42:44.304Z,49.63
2017-09-27T15:45:46.658Z,50.40
2017-09-27T15:48:48.634Z,46.30
2017-09-27T15:51:50.971Z,44.47
2017-09-27T15:54:52.939Z,45.65
2017-09-27T15:57:55.226Z,45.20
2017-09-27T16:00:57.926Z,49.47
2017-09-27T16:04:00.300Z,47.50
2017-09-27T16:07:02.249Z,47.30
2017-09-27T16:10:04.602Z,48.28
2017-09-27T16:13:06.535Z,47.10
2017-09-27T16:16:09.645Z,51.70
2017-09-27T16:19:11.620Z,44.20
2017-09-27T16:22:13.949Z,47.50
2017-09-27T16:25:15.993Z,47.95
2017-09-27T16:28:19.123Z,44.25
2017-09-27T16:31:21.829Z,49.95
2017-09-27T16:34:24.184Z,48.55
2017-09-27T16:37:26.119Z,45.15
2017-09-27T16:40:28.487Z,50.58
2017-09-27T16:43:30.411Z,53.03
2017-09-27T16:46:32.797Z,54.42
2017-09-27T16:49:34.729Z,51.88
2017-09-27T16:52:37.128Z,51.80
2017-09-27T16:55:39.200Z,57.45
2017-09-27T16:58:42.326Z,56.25
2017-09-27T17:01:44.264Z,55.33
2017-09-27T17:04:46.732Z,54.60
2017-09-27T17:07:48.681Z,55.42
2017-09-27T17:10:51.037Z,57.95
2017-09-27T17:13:52.977Z,57.42
2017-09-27T17:16:55.341Z,58.47
2017-09-27T17:19:57.283Z,65.47
2017-09-27T17:22:59.655Z,56.80
2017-09-27T17:26:01.641Z,62.92
2017-09-27T17:29:03.961Z,63.45
2017-09-27T17:32:06.104Z,65.78
2017-09-27T17:35:08.495Z,63.05
2017-09-27T17:38:10.529Z,67.70
2017-09-27T17:41:12.958Z,76.60
2017-09-27T17:44:14.928Z,72.47
2017-09-27T17:47:17.407Z,72.35
2017-09-27T17:50:19.348Z,78.15
2017-09-27T17:53:22.572Z,79.62
2017-09-27T17:56:25.376Z,76.28
2017-09-27T17:59:27.741Z,72.12
2017-09-27T18:02:29.698Z,66.37
2017-09-27T18:05:32.148Z,73.25
2017-09-27T18:08:34.093Z,84.07
2017-09-27T18:11:37.487Z,184.37
2017-09-27T18:14:39.472Z,145.93
2017-09-27T18:17:41.776Z,153.62
2017-09-27T18:20:43.712Z,98.32
2017-09-27T18:23:46.101Z,79.47
2017-09-27T18:26:48.959Z,81.00
2017-09-27T18:29:51.355Z,78.70
2017-09-27T18:32:53.424Z,83.93
2017-09-27T18:35:56.544Z,84.82
2017-09-27T18:38:59.113Z,84.45
2017-09-27T18:42:01.460Z,83.07
2017-09-27T18:45:03.411Z,87.80
2017-09-27T18:48:05.773Z,99.03
2017-09-27T18:51:07.715Z,84.37
2017-09-27T18:54:10.087Z,95.45
2017-09-27T18:57:12.029Z,86.25
2017-09-27T19:00:14.369Z,85.47
2017-09-27T19:03:16.335Z,80.75
2017-09-27T19:06:19.496Z,91.45
2017-09-27T19:09:21.446Z,88.70
2017-09-27T19:12:23.809Z,92.78
2017-09-27T19:15:25.868Z,84.82
2017-09-27T19:18:28.208Z,90.05
2017-09-27T19:21:30.169Z,87.05
2017-09-27T19:24:32.430Z,96.55
2017-09-27T19:27:34.387Z,105.25
2017-09-27T19:30:36.729Z,92.90
2017-09-27T19:33:38.777Z,99.43
2017-09-27T19:36:41.051Z,99.22
2017-09-27T19:39:43.102Z,103.90
2017-09-27T19:42:45.638Z,97.55
2017-09-27T19:45:47.600Z,99.00
2017-09-27T19:48:49.953Z,90.22
2017-09-27T19:51:51.992Z,93.35
2017-09-27T19:54:54.455Z,108.45
2017-09-27T19:57:56.404Z,100.93
2017-09-27T20:00:58.768Z,104.82
2017-09-27T20:04:00.720Z,112.28
2017-09-27T20:07:03.157Z,106.72
2017-09-27T20:10:05.101Z,99.97
2017-09-27T20:13:07.577Z,95.40
2017-09-27T20:16:09.511Z,94.70
2017-09-27T20:19:11.912Z,97.40
2017-09-27T20:22:13.849Z,97.45
2017-09-27T20:25:16.183Z,93.82
2017-09-27T20:28:18.118Z,105.63
2017-09-27T20:31:20.495Z,102.90
2017-09-27T20:34:22.426Z,100.70
2017-09-27T20:37:24.777Z,100.50
2017-09-27T20:40:27.669Z,112.43
2017-09-27T20:43:30.631Z,117.07
2017-09-27T20:46:32.562Z,126.70
2017-09-27T20:49:35.690Z,119.47
2017-09-27T20:52:37.879Z,126.85
2017-09-27T20:55:41.000Z,124.15
2017-09-27T20:58:42.942Z,131.07
2017-09-27T21:01:45.363Z,135.15
2017-09-27T21:04:48.071Z,141.60
2017-09-27T21:07:50.420Z,136.68
2017-09-27T21:10:52.355Z,145.18
2017-09-27T21:13:54.742Z,156.12
2017-09-27T21:16:56.789Z,148.93
2017-09-27T21:19:59.094Z,127.15
2017-09-27T21:23:01.916Z,169.62
2017-09-27T21:26:04.271Z,147.82
2017-09-27T21:29:06.211Z,149.25
2017-09-27T21:32:08.578Z,136.57
2017-09-27T21:35:10.572Z,135.05
2017-09-27T21:38:13.694Z,149.12
2017-09-27T21:41:15.748Z,143.60
2017-09-27T21:44:18.110Z,165.25
2017-09-27T21:47:20.051Z,147.50
2017-09-27T21:50:22.411Z,131.93
2017-09-27T21:53:24.455Z,155.85
2017-09-27T21:56:26.830Z,162.65
2017-09-27T21:59:28.876Z,130.05
2017-09-27T22:02:31.219Z,178.27
2017-09-27T22:05:33.249Z,158.12
2017-09-27T22:08:36.365Z,152.77
2017-09-27T22:11:38.393Z,141.50
2017-09-27T22:14:40.764Z,212.65
2017-09-27T22:17:42.827Z,215.37
2017-09-27T22:20:45.171Z,219.00
2017-09-27T22:23:47.276Z,224.95
2017-09-27T22:26:50.400Z,203.77
2017-09-27T22:29:52.351Z,227.95
2017-09-27T22:32:54.722Z,253.48
2017-09-27T22:35:56.655Z,187.85
2017-09-27T22:38:59.832Z,168.62
2017-09-27T22:42:01.880Z,154.48
2017-09-27T22:45:04.154Z,162.05
2017-09-27T22:48:06.175Z,152.43
2017-09-27T22:51:08.504Z,185.98
2017-09-27T22:54:10.443Z,224.95
2017-09-27T22:57:12.805Z,272.42
2017-09-27T23:00:14.752Z,224.12
2017-09-27T23:03:17.115Z,186.10
2017-09-27T23:06:19.080Z,220.73
2017-09-27T23:09:21.448Z,215.68
2017-09-27T23:12:23.433Z,230.32
2017-09-27T23:15:26.562Z,261.27
2017-09-27T23:18:28.540Z,293.05
2017-09-27T23:21:31.078Z,300.58
2017-09-27T23:24:33.016Z,258.27
2017-09-27T23:27:35.384Z,265.27
2017-09-27T23:30:37.333Z,259.95
2017-09-27T23:33:39.683Z,275.52
2017-09-27T23:36:41.698Z,269.35
2017-09-27T23:39:44.087Z,314.02
2017-09-27T23:42:46.154Z,301.33
2017-09-27T23:45:49.151Z,283.60
2017-09-27T23:48:51.089Z,265.27
2017-09-27T23:51:53.405Z,233.90
2017-09-27T23:54:55.350Z,322.65
2017-09-27T23:57:57.718Z,272.05
